Time;durP1;ratioP1;P1;durP2;ratioP2;P2;SDS_P1;SDS_P2;PMS_P1;PMS_P2;Temp;Humidity;BMP_temperature;BMP_pressure;BME280_temperature;BME280_humidity;BME280_pressure;Samples;Min_cycle;Max_cycle;Signal;HPM_P1;HPM_P2
2022/10/26 16:56:30;;;;;;;;;;;;;;;;;;;;;
2022/10/26 17:06:39;;;;;;;4.77;3.07;;;21.60;99.90;;;;;;6227386;23;20502;-85
2022/10/26 17:09:50;;;;;;;8.40;2.30;;;21.50;99.90;;;;;;6220717;23;20390;-85
2022/10/26 17:12:56;;;;;;;4.50;2.00;;;21.50;99.90;;;;;;6248394;23;20415;-85
2022/10/26 17:16:00;;;;;;;2.90;1.73;;;21.50;99.90;;;;;;6195792;23;20784;-85
2022/10/26 18:31:00;;;;;;;11.03;5.10;;;19.70;99.90;;;;;;6279561;22;20409;-83
2022/10/26 18:33:46;;;;;;;10.57;4.07;;;19.60;99.90;;;;;;6264215;22;20386;-83
2022/10/26 18:39:34;;;;;;;;;;;;;;;;;;;;;
2022/10/26 19:02:39;;;;;;;9.93;5.60;;;18.80;1.00;;;;;;6255860;22;20418;-83
2022/10/26 19:06:05;;;;;;;9.90;4.83;;;18.70;1.00;;;;;;6279116;22;20385;-83
2022/10/26 19:15:36;;;;;;;8.07;4.03;;;18.60;1.00;;;;;;6206464;22;20402;-83
2022/10/26 19:18:02;;;;;;;6.67;2.77;;;18.50;1.00;;;;;;6279738;22;20710;-83
2022/10/26 19:20:44;;;;;;;;;;;;;;;;;;;;;
2022/10/26 19:23:15;;;;;;;10.93;3.00;;;18.50;1.00;;;;;;6279477;22;20221;-83
2022/10/26 19:25:41;;;;;;;6.03;2.93;;;18.40;1.00;;;;;;6252148;22;20400;-83
2022/10/26 19:31:50;;;;;;;;;;;;;;;;;;;;;
2022/10/26 19:38:44;;;;;;;4.73;2.60;;;18.30;10.80;;;;;;6263373;22;20400;-83
2022/10/26 19:41:31;;;;;;;;;;;;;;;;;;;;;
2022/10/26 19:48:13;;;;;;;;;;;;;;;;;;;;;
2022/10/26 19:50:49;;;;;;;6.17;2.73;;;18.10;99.90;;;;;;6279532;22;20419;-84
2022/10/26 19:53:17;;;;;;;10.43;3.57;;;18.10;99.90;;;;;;6279467;22;20371;-84
2022/10/26 19:55:44;;;;;;;4.87;2.63;;;17.90;99.90;;;;;;6253150;22;20414;-83
2022/10/26 19:58:15;;;;;;;6.13;2.73;;;17.80;99.90;;;;;;6252353;22;20393;-83
2022/10/26 20:07:33;;;;;;;3.87;2.40;;;17.40;1.00;;;;;;6263565;22;20470;-84
2022/10/26 20:29:49;;;;;;;6.40;2.43;;;17.40;1.00;;;;;;6263632;22;20741;-83
2022/10/26 20:32:20;;;;;;;3.17;2.50;;;17.40;1.00;;;;;;6253222;22;20865;-84
2022/10/26 20:35:04;;;;;;;;;;;;;;;;;;;;;
2022/10/26 20:55:21;;;;;;;;;;;;;;;;;;;;;
2022/10/26 20:58:42;;;;;;;4.17;2.23;;;17.10;33.60;;;;;;6269606;22;20462;-84
2022/10/26 21:01:20;;;;;;;7.73;3.03;;;17.00;99.90;;;;;;6215978;22;20804;-83
2022/10/26 21:03:46;;;;;;;6.20;2.60;;;16.90;99.90;;;;;;6281744;22;20371;-83
2022/10/26 21:06:14;;;;;;;7.43;2.67;;;16.90;99.90;;;;;;6254994;22;20406;-83
2022/10/26 21:08:39;;;;;;;5.83;3.07;;;16.80;99.90;;;;;;6253907;22;20159;-83
2022/10/26 21:11:07;;;;;;;3.80;2.03;;;16.80;99.90;;;;;;6254085;22;20395;-84
2022/10/26 21:13:35;;;;;;;4.90;2.87;;;16.80;99.90;;;;;;6280500;22;20169;-84
2022/10/26 21:16:05;;;;;;;3.23;2.13;;;16.80;99.90;;;;;;6253629;22;20475;-84
2022/10/26 21:18:31;;;;;;;14.07;2.53;;;16.80;99.90;;;;;;6253587;22;20399;-84
2022/10/26 21:20:58;;;;;;;6.43;2.67;;;16.70;99.90;;;;;;6253156;22;20930;-84
2022/10/26 21:23:33;;;;;;;4.67;2.40;;;16.70;99.90;;;;;;6253560;22;20736;-84
2022/10/26 21:25:59;;;;;;;4.77;2.53;;;16.70;1.00;;;;;;6253255;22;20402;-84
2022/10/26 21:28:26;;;;;;;9.07;2.23;;;16.70;1.00;;;;;;6254026;22;20461;-84
2022/10/26 21:30:51;;;;;;;4.87;2.60;;;16.70;1.00;;;;;;6280553;22;20371;-84
2022/10/26 21:33:17;;;;;;;4.73;2.37;;;16.60;1.00;;;;;;6280754;22;20371;-84
2022/10/26 21:35:51;;;;;;;4.70;2.57;;;16.70;1.00;;;;;;6279614;22;20172;-84
2022/10/26 21:38:16;;;;;;;5.83;2.40;;;16.60;1.00;;;;;;6253160;22;20166;-84
2022/10/26 21:41:05;;;;;;;4.57;2.50;;;16.60;1.00;;;;;;6252355;22;20386;-84
2022/10/26 21:43:32;;;;;;;7.03;2.40;;;16.60;1.00;;;;;;6252516;22;20200;-84
2022/10/26 21:45:58;;;;;;;8.23;2.07;;;16.50;1.00;;;;;;6279307;22;20405;-84
2022/10/26 21:48:40;;;;;;;;;;;;;;;;;;;;;
2022/10/26 21:51:27;;;;;;;5.47;2.50;;;16.50;1.00;;;;;;6279486;22;20438;-84
2022/10/26 21:53:57;;;;;;;6.47;2.90;;;16.50;1.00;;;;;;6280060;22;20371;-84
2022/10/26 22:03:09;;;;;;;;;;;;;;;;;;;;;
2022/10/26 22:12:56;;;;;;;;;;;;;;;;;;;;;
2022/10/26 22:18:45;;;;;;;10.17;3.77;;;16.20;99.90;;;;;;6258310;22;20390;-84
2022/10/26 22:21:14;;;;;;;5.03;3.60;;;16.20;99.90;;;;;;6278672;22;20453;-84
2022/10/26 22:23:41;;;;;;;6.77;3.93;;;16.10;99.90;;;;;;6251625;22;20393;-84
2022/10/26 22:26:12;;;;;;;7.67;4.07;;;16.10;99.90;;;;;;6279335;22;20398;-84
2022/10/26 22:28:45;;;;;;;10.53;3.40;;;16.10;99.90;;;;;;6251840;22;20798;-84
2022/10/26 22:31:19;;;;;;;7.90;4.20;;;16.00;1.00;;;;;;6279598;22;20824;-84
2022/10/26 22:36:54;;;;;;;9.13;4.60;;;16.00;1.00;;;;;;6246593;22;20406;-84
2022/10/26 22:39:20;;;;;;;7.73;4.70;;;16.00;1.00;;;;;;6279951;22;20480;-84
2022/10/26 22:41:48;;;;;;;8.37;5.27;;;15.90;1.00;;;;;;6253661;22;20475;-84
2022/10/26 22:44:16;;;;;;;8.83;5.30;;;15.90;45.40;;;;;;6253187;22;20167;-84
2022/10/26 22:46:43;;;;;;;9.80;5.30;;;15.90;99.90;;;;;;6279853;22;20406;-83
2022/10/26 22:49:10;;;;;;;5.50;4.07;;;15.90;99.90;;;;;;6280100;22;20862;-84
2022/10/26 22:51:36;;;;;;;8.43;4.00;;;15.80;1.00;;;;;;6253673;22;20477;-84
2022/10/26 22:54:03;;;;;;;7.27;3.60;;;15.80;1.00;;;;;;6280303;22;20379;-84
2022/10/26 22:56:33;;;;;;;9.17;4.97;;;15.80;1.00;;;;;;6253301;22;20182;-84
2022/10/26 22:59:07;;;;;;;6.70;3.50;;;15.80;1.00;;;;;;6252198;22;20397;-84
2022/10/26 23:01:37;;;;;;;8.57;3.90;;;15.80;99.90;;;;;;6252667;22;20425;-84
2022/10/26 23:04:05;;;;;;;10.73;4.60;;;15.80;99.90;;;;;;6279827;22;20414;-84
2022/10/26 23:06:32;;;;;;;8.83;4.77;;;15.80;1.00;;;;;;6253148;22;20416;-84
2022/10/26 23:08:57;;;;;;;6.57;4.47;;;15.70;1.00;;;;;;6279487;22;20390;-84
2022/10/26 23:11:33;;;;;;;5.73;3.73;;;15.70;60.20;;;;;;6280101;22;20859;-84
2022/10/26 23:14:00;;;;;;;4.50;4.00;;;15.70;99.90;;;;;;6279869;22;20136;-84
2022/10/26 23:16:36;;;;;;;7.30;3.73;;;15.70;99.90;;;;;;6252584;22;20414;-84
2022/10/26 23:19:02;;;;;;;9.27;4.37;;;15.70;1.00;;;;;;6252504;22;20732;-84
2022/10/26 23:21:30;;;;;;;9.23;4.57;;;15.70;1.00;;;;;;6280419;22;20418;-84
2022/10/26 23:23:58;;;;;;;9.77;4.20;;;15.60;1.00;;;;;;6279677;22;20146;-84
2022/10/26 23:26:26;;;;;;;11.50;5.00;;;15.60;1.00;;;;;;6252867;22;20515;-84
2022/10/26 23:28:51;;;;;;;9.23;5.60;;;15.60;1.00;;;;;;6280167;22;20394;-84
2022/10/26 23:31:25;;;;;;;13.00;5.40;;;15.60;99.90;;;;;;6280096;22;20382;-83
2022/10/26 23:33:55;;;;;;;12.43;6.77;;;15.60;99.90;;;;;;6252745;22;20216;-84
2022/10/26 23:36:23;;;;;;;7.60;4.63;;;15.60;99.90;;;;;;6252961;22;20416;-84
2022/10/26 23:38:48;;;;;;;6.80;4.30;;;15.60;99.90;;;;;;6280209;22;20404;-84
2022/10/26 23:41:16;;;;;;;5.47;3.37;;;15.60;99.90;;;;;;6281161;22;20422;-84
2022/10/26 23:43:42;;;;;;;4.63;3.03;;;15.60;99.90;;;;;;6280646;22;20158;-84
2022/10/26 23:46:08;;;;;;;9.40;4.23;;;15.60;99.90;;;;;;6253608;22;20504;-84
2022/10/26 23:48:33;;;;;;;4.13;2.60;;;15.60;99.90;;;;;;6253913;22;20166;-84
2022/10/26 23:50:59;;;;;;;8.63;3.20;;;15.60;99.90;;;;;;6280395;22;20162;-84
2022/10/26 23:53:24;;;;;;;5.97;3.40;;;15.60;1.00;;;;;;6253463;22;20156;-84
2022/10/26 23:55:50;;;;;;;7.77;2.90;;;15.50;1.00;;;;;;6254005;22;20179;-83
2022/10/26 23:58:17;;;;;;;14.03;2.50;;;15.50;1.00;;;;;;6257368;22;20155;-83
